createdAt,value
2024-05-09T00:00:31.558Z,60.57
2024-05-09T00:03:25.229Z,60.72
2024-05-09T00:05:51.748Z,60.66
2024-05-09T00:08:18.316Z,60.73
2024-05-09T00:10:44.901Z,60.73
2024-05-09T00:13:12.033Z,61.07
2024-05-09T00:15:38.605Z,60.89
2024-05-09T00:18:06.013Z,61.04
2024-05-09T00:20:38.244Z,61.10
2024-05-09T00:23:09.025Z,61.39
2024-05-09T00:25:37.455Z,61.48
2024-05-09T00:28:05.302Z,61.52
2024-05-09T00:30:35.370Z,61.51
2024-05-09T00:33:05.347Z,61.57
2024-05-09T00:35:33.508Z,61.94
2024-05-09T00:38:00.313Z,62.38
2024-05-09T00:40:38.716Z,62.87
2024-05-09T00:43:08.449Z,63.08
2024-05-09T00:45:35.147Z,63.18
2024-05-09T00:48:04.083Z,63.55
2024-05-09T00:50:36.456Z,63.94
2024-05-09T00:53:06.170Z,63.84
2024-05-09T00:55:38.126Z,63.54
2024-05-09T00:58:06.908Z,63.55
2024-05-09T01:00:39.029Z,63.91
2024-05-09T01:03:09.071Z,64.43
2024-05-09T01:05:37.993Z,64.66
2024-05-09T01:08:05.305Z,64.78
2024-05-09T01:10:34.834Z,64.79
2024-05-09T01:13:06.587Z,65.05
2024-05-09T01:15:34.145Z,65.27
2024-05-09T01:18:07.662Z,65.46
2024-05-09T01:20:41.262Z,65.59
2024-05-09T01:23:12.030Z,65.59
2024-05-09T01:25:39.390Z,65.73
2024-05-09T01:28:06.775Z,66.15
2024-05-09T01:30:35.951Z,66.17
2024-05-09T01:33:06.441Z,66.34
2024-05-09T01:35:34.847Z,66.23
2024-05-09T01:38:01.418Z,66.35
2024-05-09T01:40:36.428Z,66.52
2024-05-09T01:43:10.543Z,66.63
2024-05-09T01:45:39.160Z,66.64
2024-05-09T01:48:06.851Z,66.69
2024-05-09T01:50:38.970Z,66.78
2024-05-09T01:53:10.473Z,66.85
2024-05-09T01:55:37.246Z,67.26
2024-05-09T01:58:04.231Z,67.40
2024-05-09T02:00:38.262Z,67.48
2024-05-09T02:03:15.437Z,67.71
2024-05-09T02:05:45.937Z,67.91
2024-05-09T02:08:14.927Z,68.01
2024-05-09T02:10:42.398Z,68.17
2024-05-09T02:13:09.201Z,68.46
2024-05-09T02:15:35.653Z,68.50
2024-05-09T02:18:02.397Z,68.58
2024-05-09T02:20:35.547Z,68.69
2024-05-09T02:23:04.755Z,69.04
2024-05-09T02:25:31.861Z,69.31
2024-05-09T02:27:58.405Z,69.75
2024-05-09T02:30:34.921Z,69.69
2024-05-09T02:33:06.319Z,69.67
2024-05-09T02:35:33.270Z,70.02
2024-05-09T02:38:00.048Z,70.35
2024-05-09T02:40:35.552Z,70.67
2024-05-09T02:43:11.605Z,70.80
2024-05-09T02:45:40.045Z,71.13
2024-05-09T02:48:10.119Z,71.22
2024-05-09T02:50:39.434Z,71.27
2024-05-09T02:53:08.118Z,71.05
2024-05-09T02:55:34.982Z,70.90
2024-05-09T02:58:01.611Z,71.24
2024-05-09T03:00:36.851Z,71.88
2024-05-09T03:03:07.199Z,72.12
2024-05-09T03:05:34.827Z,72.43
2024-05-09T03:08:01.667Z,72.32
2024-05-09T03:10:29.075Z,72.22
2024-05-09T03:13:08.640Z,72.17
2024-05-09T03:15:35.591Z,72.17
2024-05-09T03:18:03.498Z,72.19
2024-05-09T03:20:34.326Z,72.55
2024-05-09T03:23:03.372Z,72.50
2024-05-09T03:25:30.358Z,72.34
2024-05-09T03:27:56.927Z,72.62
2024-05-09T03:30:30.988Z,72.69
2024-05-09T03:33:14.140Z,72.61
2024-05-09T03:35:42.982Z,72.62
2024-05-09T03:38:09.690Z,72.62
2024-05-09T03:40:43.146Z,72.63
2024-05-09T03:43:09.783Z,72.67
2024-05-09T03:45:36.397Z,72.56
2024-05-09T03:48:03.095Z,72.46
2024-05-09T03:50:34.020Z,72.24
2024-05-09T03:53:02.543Z,72.16
2024-05-09T03:55:29.164Z,72.16
2024-05-09T03:57:55.914Z,72.23
2024-05-09T04:00:30.959Z,71.95
2024-05-09T04:03:05.498Z,71.69
2024-05-09T04:05:33.436Z,71.72
2024-05-09T04:08:01.191Z,71.66
2024-05-09T04:10:32.923Z,71.32
2024-05-09T04:13:01.939Z,71.19
2024-05-09T04:15:28.791Z,71.30
2024-05-09T04:17:55.528Z,71.10
2024-05-09T04:20:33.337Z,71.11
2024-05-09T04:23:05.692Z,70.73
2024-05-09T04:25:32.485Z,70.76
2024-05-09T04:27:59.106Z,70.43
2024-05-09T04:30:34.014Z,70.24
2024-05-09T04:33:05.683Z,70.12
2024-05-09T04:35:32.616Z,70.16
2024-05-09T04:37:59.227Z,70.17
2024-05-09T04:40:33.003Z,70.31
2024-05-09T04:43:03.923Z,70.18
2024-05-09T04:45:30.566Z,70.05
2024-05-09T04:47:57.491Z,70.39
2024-05-09T04:50:33.553Z,70.72
2024-05-09T04:53:05.829Z,70.50
2024-05-09T04:55:35.486Z,70.43
2024-05-09T04:58:08.044Z,69.63
2024-05-09T05:00:37.204Z,69.08
2024-05-09T05:03:08.309Z,68.52
2024-05-09T05:05:39.871Z,68.22
2024-05-09T05:08:17.737Z,67.63
2024-05-09T05:10:46.256Z,67.21
2024-05-09T05:13:14.076Z,66.72
2024-05-09T05:15:40.895Z,66.55
2024-05-09T05:18:07.967Z,66.92
2024-05-09T05:20:34.905Z,66.63
2024-05-09T05:23:01.557Z,66.64
2024-05-09T05:25:28.082Z,66.46
2024-05-09T05:27:54.731Z,66.27
2024-05-09T05:30:28.703Z,66.22
2024-05-09T05:32:59.834Z,66.34
2024-05-09T05:35:26.946Z,66.20
2024-05-09T05:37:54.354Z,66.05
2024-05-09T05:40:28.227Z,65.90
2024-05-09T05:43:03.791Z,65.83
2024-05-09T05:45:30.456Z,65.59
2024-05-09T05:47:57.436Z,65.41
2024-05-09T05:50:32.263Z,65.40
2024-05-09T05:53:05.435Z,65.50
2024-05-09T05:55:32.418Z,65.45
2024-05-09T05:58:01.310Z,65.19
2024-05-09T06:00:34.461Z,64.66
2024-05-09T06:03:04.964Z,64.54
2024-05-09T06:05:32.714Z,64.53
2024-05-09T06:07:59.607Z,64.23
2024-05-09T06:10:34.601Z,63.82
2024-05-09T06:13:05.234Z,63.82
2024-05-09T06:15:31.724Z,63.69
2024-05-09T06:17:58.584Z,63.50
2024-05-09T06:20:34.583Z,63.48
2024-05-09T06:23:07.689Z,63.23
2024-05-09T06:25:35.431Z,62.74
2024-05-09T06:28:02.709Z,62.21
2024-05-09T06:30:37.832Z,61.93
2024-05-09T06:33:08.854Z,61.66
2024-05-09T06:35:36.508Z,61.36
2024-05-09T06:38:03.650Z,60.68
2024-05-09T06:40:36.897Z,60.01
2024-05-09T06:43:17.403Z,59.25
2024-05-09T06:45:50.405Z,58.84
2024-05-09T06:48:20.875Z,58.25
2024-05-09T06:50:48.489Z,58.01
2024-05-09T06:53:16.219Z,57.64
2024-05-09T06:55:43.047Z,56.88
2024-05-09T06:58:09.795Z,56.91
2024-05-09T07:00:39.901Z,57.08
2024-05-09T07:03:15.339Z,56.71
2024-05-09T07:05:45.060Z,56.15
2024-05-09T07:08:13.254Z,55.94
2024-05-09T07:10:40.888Z,55.26
2024-05-09T07:13:12.466Z,54.75
2024-05-09T07:15:40.155Z,54.48
2024-05-09T07:18:18.003Z,54.54
2024-05-09T07:20:46.594Z,53.78
2024-05-09T07:23:13.904Z,53.39
2024-05-09T07:25:41.745Z,52.63
2024-05-09T07:28:16.518Z,52.51
2024-05-09T07:30:44.103Z,52.78
2024-05-09T07:33:28.894Z,52.19
2024-05-09T07:35:56.313Z,51.77
2024-05-09T07:38:22.811Z,51.53
2024-05-09T07:40:49.543Z,51.18
2024-05-09T07:43:16.670Z,50.92
2024-05-09T07:45:51.712Z,50.29
2024-05-09T07:52:37.734Z,49.82
2024-05-09T07:53:46.970Z,49.22
2024-05-09T07:58:42.962Z,48.62
2024-05-09T08:01:10.010Z,48.45
2024-05-09T08:03:37.443Z,48.63
2024-05-09T08:06:04.366Z,48.38
2024-05-09T08:08:30.823Z,48.75
2024-05-09T08:10:57.264Z,48.04
2024-05-09T08:13:23.798Z,46.73
2024-05-09T08:15:50.746Z,46.00
2024-05-09T08:18:17.826Z,46.45
2024-05-09T08:20:48.182Z,46.36
2024-05-09T08:23:14.831Z,46.43
2024-05-09T08:25:41.390Z,46.51
2024-05-09T08:28:07.972Z,46.12
2024-05-09T08:30:37.579Z,46.32
2024-05-09T08:33:06.286Z,46.08
2024-05-09T08:35:34.433Z,45.80
2024-05-09T08:38:06.071Z,45.43
2024-05-09T08:40:36.181Z,45.66
2024-05-09T08:43:10.498Z,44.91
2024-05-09T08:45:39.599Z,43.73
2024-05-09T08:48:07.678Z,43.88
2024-05-09T08:50:40.172Z,44.13
2024-05-09T08:53:08.141Z,44.18
2024-05-09T08:55:37.386Z,43.79
2024-05-09T08:58:06.659Z,43.03
2024-05-09T09:00:37.077Z,43.05
2024-05-09T09:03:08.474Z,43.30
2024-05-09T09:05:38.676Z,43.70
2024-05-09T09:08:07.466Z,43.47
2024-05-09T09:10:34.456Z,42.45
2024-05-09T09:13:01.203Z,41.79
2024-05-09T09:15:27.851Z,42.39
2024-05-09T09:17:59.714Z,41.92
2024-05-09T09:20:36.446Z,42.10
2024-05-09T09:23:04.210Z,42.09
2024-05-09T09:25:31.153Z,41.88
2024-05-09T09:27:58.230Z,42.18
2024-05-09T09:30:36.154Z,41.71
2024-05-09T09:33:13.489Z,41.42
2024-05-09T09:35:42.240Z,41.12
2024-05-09T09:38:09.280Z,41.17
2024-05-09T09:40:41.082Z,39.93
2024-05-09T09:43:18.001Z,40.03
2024-05-09T09:45:49.103Z,40.31
2024-05-09T09:48:16.209Z,39.38
2024-05-09T09:50:43.378Z,38.90
2024-05-09T09:53:11.519Z,39.06
2024-05-09T09:55:39.463Z,39.24
2024-05-09T09:58:08.604Z,38.68
2024-05-09T10:00:37.655Z,38.12
2024-05-09T10:03:04.650Z,37.37
2024-05-09T10:05:32.895Z,37.20
2024-05-09T10:08:07.554Z,36.75
2024-05-09T10:10:35.549Z,35.47
2024-05-09T10:13:03.590Z,34.80
2024-05-09T10:15:44.906Z,34.12
2024-05-09T10:18:11.692Z,33.48
2024-05-09T10:20:41.616Z,33.54
2024-05-09T10:23:28.244Z,33.71
2024-05-09T10:25:59.476Z,33.39
2024-05-09T10:28:31.182Z,33.27
2024-05-09T10:31:11.837Z,33.18
2024-05-09T10:33:45.368Z,32.76
2024-05-09T10:36:20.733Z,32.43
2024-05-09T10:38:51.873Z,31.25
2024-05-09T10:41:19.503Z,30.71
2024-05-09T10:43:46.819Z,30.28
2024-05-09T10:46:13.598Z,29.94
2024-05-09T10:48:42.133Z,29.41
2024-05-09T10:51:10.212Z,28.11
2024-05-09T10:53:44.500Z,27.68
2024-05-09T10:56:13.833Z,27.71
2024-05-09T10:58:41.417Z,27.63
2024-05-09T11:01:09.201Z,26.81
2024-05-09T11:03:37.091Z,26.66
2024-05-09T11:06:05.458Z,26.20
2024-05-09T11:08:34.176Z,25.77
2024-05-09T11:11:01.971Z,24.27
2024-05-09T11:13:34.134Z,24.33
2024-05-09T11:16:01.635Z,23.97
2024-05-09T11:18:33.251Z,23.59
2024-05-09T11:21:02.793Z,23.41
2024-05-09T11:23:29.533Z,22.67
2024-05-09T11:25:59.057Z,22.79
2024-05-09T11:28:27.762Z,22.54
2024-05-09T11:31:04.911Z,21.93
2024-05-09T11:33:31.551Z,21.78
2024-05-09T11:35:58.158Z,21.13
2024-05-09T11:38:24.704Z,20.91
2024-05-09T11:40:51.541Z,20.93
2024-05-09T11:43:18.305Z,20.72
2024-05-09T11:45:45.213Z,20.07
2024-05-09T11:48:12.147Z,19.96
2024-05-09T11:50:39.124Z,19.39
2024-05-09T11:53:05.694Z,19.00
2024-05-09T11:55:32.280Z,19.12
2024-05-09T11:57:58.991Z,19.02
2024-05-09T12:00:33.870Z,18.63
2024-05-09T12:03:04.013Z,18.64
2024-05-09T12:05:31.080Z,18.55
2024-05-09T12:07:57.726Z,18.28
2024-05-09T12:10:32.538Z,18.35
2024-05-09T12:13:04.206Z,18.38
2024-05-09T12:15:32.499Z,17.92
2024-05-09T12:18:02.553Z,18.70
2024-05-09T12:20:36.614Z,19.42
2024-05-09T12:23:07.442Z,20.43
2024-05-09T12:25:35.084Z,20.88
2024-05-09T12:28:01.811Z,20.33
2024-05-09T12:30:36.100Z,20.03
2024-05-09T12:33:07.693Z,19.64
2024-05-09T12:35:35.028Z,19.17
2024-05-09T12:38:02.637Z,18.64
2024-05-09T12:40:35.836Z,18.33
2024-05-09T12:43:09.579Z,18.34
2024-05-09T12:45:37.921Z,18.01
2024-05-09T12:48:06.000Z,17.97
2024-05-09T12:50:35.500Z,17.96
2024-05-09T12:53:03.263Z,18.29
2024-05-09T12:55:40.816Z,18.62
2024-05-09T12:58:16.403Z,18.32
2024-05-09T13:00:43.580Z,18.13
2024-05-09T13:03:10.312Z,17.59
2024-05-09T13:05:37.070Z,16.67
2024-05-09T13:08:04.164Z,16.52
2024-05-09T13:10:32.842Z,16.39
2024-05-09T13:13:01.031Z,16.23
2024-05-09T13:15:29.886Z,15.99
2024-05-09T13:17:59.453Z,15.88
2024-05-09T13:20:33.087Z,15.03
2024-05-09T13:23:06.948Z,15.46
2024-05-09T13:25:35.893Z,15.33
2024-05-09T13:28:03.522Z,15.20
2024-05-09T13:30:38.647Z,15.50
2024-05-09T13:33:12.610Z,15.57
2024-05-09T13:35:47.698Z,15.83
2024-05-09T13:38:19.180Z,15.83
2024-05-09T13:40:46.736Z,15.69
2024-05-09T13:43:13.609Z,16.12
2024-05-09T13:45:40.627Z,16.44
2024-05-09T13:48:07.539Z,17.21
2024-05-09T13:50:36.552Z,17.49
2024-05-09T13:53:06.431Z,17.85
2024-05-09T13:55:36.651Z,18.33
2024-05-09T13:58:03.617Z,18.63
2024-05-09T14:00:42.184Z,18.99
2024-05-09T14:03:15.514Z,19.64
2024-05-09T14:05:43.912Z,20.27
2024-05-09T14:08:11.014Z,21.03
2024-05-09T14:10:38.380Z,21.38
2024-05-09T14:13:05.475Z,21.84
2024-05-09T14:15:32.066Z,22.04
2024-05-09T14:17:58.552Z,22.49
2024-05-09T14:20:31.053Z,22.82
2024-05-09T14:22:59.974Z,22.42
2024-05-09T14:25:30.474Z,22.51
2024-05-09T14:27:57.527Z,22.30
2024-05-09T14:30:31.233Z,22.27
2024-05-09T14:33:05.018Z,22.73
2024-05-09T14:35:32.256Z,22.86
2024-05-09T14:38:00.014Z,23.70
2024-05-09T14:40:37.047Z,23.66
2024-05-09T14:43:12.965Z,23.79
2024-05-09T14:45:40.409Z,23.68
2024-05-09T14:48:07.648Z,24.02
2024-05-09T14:50:37.930Z,23.95
2024-05-09T14:53:07.535Z,23.75
2024-05-09T14:55:37.022Z,23.90
2024-05-09T14:58:08.384Z,23.98
2024-05-09T15:00:40.354Z,23.36
2024-05-09T15:03:09.988Z,22.98
2024-05-09T15:05:36.452Z,22.24
2024-05-09T15:08:06.545Z,21.76
2024-05-09T15:10:36.121Z,21.01
2024-05-09T15:13:04.578Z,20.36
2024-05-09T15:15:31.673Z,19.31
2024-05-09T15:17:58.972Z,18.44
2024-05-09T15:20:33.108Z,18.40
2024-05-09T15:23:03.971Z,17.80
2024-05-09T15:25:32.741Z,17.62
2024-05-09T15:27:59.428Z,17.40
2024-05-09T15:32:55.548Z,16.56
2024-05-09T15:35:22.110Z,16.37
2024-05-09T15:37:49.183Z,16.18
2024-05-09T15:40:25.980Z,15.69
2024-05-09T15:43:01.723Z,15.57
2024-05-09T15:45:28.486Z,15.45
2024-05-09T15:47:56.210Z,15.78
2024-05-09T15:50:32.683Z,16.12
2024-05-09T15:53:05.309Z,15.66
2024-05-09T15:55:31.752Z,16.03
2024-05-09T15:58:02.782Z,15.97
2024-05-09T16:00:37.147Z,16.01
2024-05-09T16:03:08.495Z,16.41
2024-05-09T16:05:35.889Z,16.36
2024-05-09T16:08:03.573Z,16.35
2024-05-09T16:10:32.977Z,16.05
2024-05-09T16:13:01.475Z,15.92
2024-05-09T16:15:28.483Z,15.87
2024-05-09T16:17:55.752Z,15.57
2024-05-09T16:20:34.005Z,15.72
2024-05-09T16:23:06.937Z,15.19
2024-05-09T16:25:33.614Z,15.13
2024-05-09T16:28:00.657Z,14.78
2024-05-09T16:30:34.203Z,15.09
2024-05-09T16:33:03.760Z,15.81
2024-05-09T16:35:32.057Z,15.55
2024-05-09T16:38:01.785Z,15.92
2024-05-09T16:40:36.472Z,15.84
2024-05-09T16:43:09.551Z,15.91
2024-05-09T16:45:38.733Z,16.03
2024-05-09T16:48:07.166Z,16.43
2024-05-09T16:50:35.678Z,16.78
2024-05-09T16:53:04.494Z,16.74
2024-05-09T16:55:31.929Z,16.97
2024-05-09T16:57:58.775Z,16.80
2024-05-09T17:00:36.068Z,16.97
2024-05-09T17:03:08.689Z,17.79
2024-05-09T17:05:36.281Z,18.61
2024-05-09T17:08:04.156Z,19.44
2024-05-09T17:10:33.774Z,20.16
2024-05-09T17:13:03.622Z,21.02
2024-05-09T17:15:31.815Z,21.89
2024-05-09T17:17:58.902Z,22.63
2024-05-09T17:20:32.424Z,23.37
2024-05-09T17:23:03.048Z,24.15
2024-05-09T17:25:29.750Z,24.86
2024-05-09T17:27:57.249Z,25.63
2024-05-09T17:30:32.075Z,26.32
2024-05-09T17:33:03.291Z,27.00
2024-05-09T17:35:31.037Z,27.43
2024-05-09T17:37:57.874Z,27.83
2024-05-09T17:40:31.150Z,28.26
2024-05-09T17:43:02.150Z,29.32
2024-05-09T17:45:28.864Z,29.68
2024-05-09T17:47:55.792Z,29.67
2024-05-09T17:50:30.302Z,29.86
2024-05-09T17:53:01.750Z,29.87
2024-05-09T17:55:28.957Z,30.05
2024-05-09T17:57:56.076Z,30.09
2024-05-09T18:00:33.104Z,30.14
2024-05-09T18:03:05.334Z,30.36
2024-05-09T18:05:32.279Z,30.61
2024-05-09T18:07:59.099Z,30.83
2024-05-09T18:10:32.961Z,31.14
2024-05-09T18:13:04.147Z,31.58
2024-05-09T18:15:30.840Z,32.51
2024-05-09T18:17:57.584Z,32.85
2024-05-09T18:20:33.157Z,33.06
2024-05-09T18:23:07.997Z,33.72
2024-05-09T18:25:34.646Z,34.26
2024-05-09T18:28:02.297Z,34.59
2024-05-09T18:30:34.414Z,35.04
2024-05-09T18:33:04.954Z,35.43
2024-05-09T18:35:32.743Z,35.73
2024-05-09T18:37:59.501Z,36.05
2024-05-09T18:40:32.959Z,36.37
2024-05-09T18:43:06.858Z,36.73
2024-05-09T18:45:36.608Z,37.44
2024-05-09T18:48:03.955Z,37.99
2024-05-09T18:50:35.835Z,38.35
2024-05-09T18:53:05.731Z,38.58
2024-05-09T18:55:32.567Z,38.73
2024-05-09T18:57:59.409Z,38.98
2024-05-09T19:00:34.114Z,38.92
2024-05-09T19:03:06.392Z,39.15
2024-05-09T19:05:35.030Z,39.47
2024-05-09T19:08:02.540Z,39.66
2024-05-09T19:10:34.066Z,39.67
2024-05-09T19:13:05.432Z,40.27
2024-05-09T19:15:37.535Z,40.72
2024-05-09T19:18:05.336Z,40.60
2024-05-09T19:20:34.804Z,40.68
2024-05-09T19:23:03.890Z,40.85
2024-05-09T19:25:30.604Z,41.23
2024-05-09T19:27:57.292Z,41.42
2024-05-09T19:30:30.556Z,41.69
2024-05-09T19:33:05.430Z,42.05
2024-05-09T19:35:32.100Z,42.70
2024-05-09T19:37:58.745Z,42.69
2024-05-09T19:40:31.253Z,42.69
2024-05-09T19:43:04.085Z,42.85
2024-05-09T19:45:31.421Z,43.31
2024-05-09T19:47:59.127Z,43.71
2024-05-09T19:50:35.564Z,44.04
2024-05-09T19:53:07.940Z,44.22
2024-05-09T19:55:34.504Z,44.32
2024-05-09T19:58:05.664Z,44.59
2024-05-09T20:00:36.283Z,45.03
2024-05-09T20:03:06.243Z,45.47
2024-05-09T20:05:33.573Z,45.77
2024-05-09T20:08:00.644Z,45.63
2024-05-09T20:10:32.556Z,45.67
2024-05-09T20:13:01.654Z,45.96
2024-05-09T20:15:28.346Z,46.05
2024-05-09T20:17:55.199Z,46.16
2024-05-09T20:22:51.844Z,46.96
2024-05-09T20:25:18.996Z,47.16
2024-05-09T20:27:45.618Z,47.45
2024-05-09T20:30:16.993Z,47.59
2024-05-09T20:32:48.224Z,48.02
2024-05-09T20:35:14.706Z,48.32
2024-05-09T20:37:41.364Z,48.36
2024-05-09T20:40:12.266Z,48.37
2024-05-09T20:42:44.285Z,48.55
2024-05-09T20:45:10.754Z,48.56
2024-05-09T20:47:37.756Z,48.65
2024-05-09T20:50:07.507Z,48.82
2024-05-09T20:52:35.810Z,48.85
2024-05-09T20:55:02.998Z,48.98
2024-05-09T20:57:30.136Z,48.98
2024-05-09T20:59:56.660Z,49.11
2024-05-09T21:02:23.347Z,49.35
2024-05-09T21:04:50.403Z,49.64
2024-05-09T21:07:17.280Z,49.56
2024-05-09T21:09:43.812Z,49.64
2024-05-09T21:12:10.345Z,49.74
2024-05-09T21:14:36.918Z,50.00
2024-05-09T21:17:03.793Z,50.43
2024-05-09T21:19:30.266Z,50.92
2024-05-09T21:21:56.797Z,51.29
2024-05-09T21:24:23.502Z,51.74
2024-05-09T21:26:49.979Z,51.92
2024-05-09T21:29:16.444Z,52.17
2024-05-09T21:31:43.006Z,52.09
2024-05-09T21:34:09.529Z,52.38
2024-05-09T21:36:36.304Z,52.63
2024-05-09T21:39:02.832Z,52.51
2024-05-09T21:41:29.302Z,52.85
2024-05-09T21:43:55.778Z,53.18
2024-05-09T21:46:22.563Z,53.50
2024-05-09T21:48:49.294Z,53.73
2024-05-09T21:51:15.807Z,54.06
2024-05-09T21:53:42.343Z,54.38
2024-05-09T21:56:09.050Z,54.54
2024-05-09T21:58:35.554Z,54.54
2024-05-09T22:01:02.153Z,54.63
2024-05-09T22:03:29.110Z,54.92
2024-05-09T22:05:55.966Z,55.04
2024-05-09T22:08:22.777Z,55.08
2024-05-09T22:10:49.718Z,55.27
2024-05-09T22:13:17.062Z,55.30
2024-05-09T22:15:43.690Z,55.67
2024-05-09T22:18:11.187Z,55.85
2024-05-09T22:20:39.923Z,56.08
2024-05-09T22:23:07.553Z,56.35
2024-05-09T22:25:34.679Z,56.71
2024-05-09T22:28:02.307Z,56.56
2024-05-09T22:36:43.854Z,56.78
2024-05-09T22:39:10.491Z,56.98
2024-05-09T22:41:39.759Z,57.33
2024-05-09T22:44:06.408Z,57.18
2024-05-09T22:46:32.993Z,57.56
2024-05-09T22:48:59.724Z,57.78
2024-05-09T22:51:26.426Z,58.01
2024-05-09T22:53:52.977Z,58.19
2024-05-09T22:56:26.757Z,58.34
2024-05-09T22:58:53.984Z,58.69
2024-05-09T23:01:21.874Z,58.38
2024-05-09T23:07:32.579Z,59.33
2024-05-09T23:09:59.507Z,59.30
2024-05-09T23:12:26.138Z,59.54
2024-05-09T23:14:52.684Z,60.07
2024-05-09T23:17:19.466Z,60.30
2024-05-09T23:19:46.119Z,60.09
2024-05-09T23:22:12.742Z,60.13
2024-05-09T23:24:39.462Z,60.29
2024-05-09T23:27:06.186Z,60.67
2024-05-09T23:29:32.836Z,61.00
2024-05-09T23:31:59.399Z,61.07
2024-05-09T23:34:29.886Z,61.29
2024-05-09T23:36:56.643Z,61.42
2024-05-09T23:39:23.456Z,61.52
2024-05-09T23:41:50.006Z,61.69
2024-05-09T23:44:16.706Z,61.87
2024-05-09T23:46:43.337Z,62.01
2024-05-09T23:49:10.000Z,61.93
2024-05-09T23:51:36.711Z,62.00
2024-05-09T23:54:03.443Z,61.88
2024-05-09T23:56:31.558Z,62.27
2024-05-09T23:58:58.210Z,62.30
